sensor_id;sensor_type;location;lat;lon;timestamp;pressure;altitude;pressure_sealevel;temperature
19282;BMP180;9774;52.034;5.342;2024-03-07T00:02:15;102411.00;;;11.40
19282;BMP180;9774;52.034;5.342;2024-03-07T00:04:43;102414.00;;;11.30
19282;BMP180;9774;52.034;5.342;2024-03-07T00:07:10;102415.00;;;11.30
19282;BMP180;9774;52.034;5.342;2024-03-07T00:09:37;102420.00;;;11.30
19282;BMP180;9774;52.034;5.342;2024-03-07T00:12:08;102415.00;;;11.30
19282;BMP180;9774;52.034;5.342;2024-03-07T00:14:35;102416.00;;;11.30
19282;BMP180;9774;52.034;5.342;2024-03-07T00:17:02;102418.00;;;11.30
19282;BMP180;9774;52.034;5.342;2024-03-07T00:19:29;102422.00;;;11.20
19282;BMP180;9774;52.034;5.342;2024-03-07T00:21:57;102419.00;;;11.20
19282;BMP180;9774;52.034;5.342;2024-03-07T00:24:24;102421.00;;;11.20
19282;BMP180;9774;52.034;5.342;2024-03-07T00:26:53;102424.00;;;11.20
19282;BMP180;9774;52.034;5.342;2024-03-07T00:29:22;102427.00;;;11.20
19282;BMP180;9774;52.034;5.342;2024-03-07T00:31:49;102425.00;;;11.20
19282;BMP180;9774;52.034;5.342;2024-03-07T00:34:17;102423.00;;;11.20
19282;BMP180;9774;52.034;5.342;2024-03-07T00:36:46;102421.00;;;11.10
19282;BMP180;9774;52.034;5.342;2024-03-07T00:39:13;102411.00;;;11.10
19282;BMP180;9774;52.034;5.342;2024-03-07T00:41:40;102415.00;;;11.10
19282;BMP180;9774;52.034;5.342;2024-03-07T00:44:08;102414.00;;;11.10
19282;BMP180;9774;52.034;5.342;2024-03-07T00:46:37;102417.00;;;11.00
19282;BMP180;9774;52.034;5.342;2024-03-07T00:49:04;102418.00;;;11.00
19282;BMP180;9774;52.034;5.342;2024-03-07T00:51:31;102417.00;;;11.00
19282;BMP180;9774;52.034;5.342;2024-03-07T00:53:58;102417.00;;;11.00
19282;BMP180;9774;52.034;5.342;2024-03-07T00:56:26;102421.00;;;11.00
19282;BMP180;9774;52.034;5.342;2024-03-07T00:58:54;102414.00;;;11.00
19282;BMP180;9774;52.034;5.342;2024-03-07T01:01:22;102419.00;;;10.90
19282;BMP180;9774;52.034;5.342;2024-03-07T01:03:51;102411.00;;;10.90
19282;BMP180;9774;52.034;5.342;2024-03-07T01:06:18;102408.00;;;10.90
19282;BMP180;9774;52.034;5.342;2024-03-07T01:08:46;102407.00;;;10.90
19282;BMP180;9774;52.034;5.342;2024-03-07T01:11:13;102409.00;;;10.90
19282;BMP180;9774;52.034;5.342;2024-03-07T01:13:40;102411.00;;;10.90
19282;BMP180;9774;52.034;5.342;2024-03-07T01:16:08;102413.00;;;10.80
19282;BMP180;9774;52.034;5.342;2024-03-07T01:18:35;102410.00;;;10.80
19282;BMP180;9774;52.034;5.342;2024-03-07T01:21:05;102401.00;;;10.80
19282;BMP180;9774;52.034;5.342;2024-03-07T01:23:34;102411.00;;;10.80
19282;BMP180;9774;52.034;5.342;2024-03-07T01:26:01;102409.00;;;10.80
19282;BMP180;9774;52.034;5.342;2024-03-07T01:28:29;102403.00;;;10.80
19282;BMP180;9774;52.034;5.342;2024-03-07T01:30:57;102398.00;;;10.70
19282;BMP180;9774;52.034;5.342;2024-03-07T01:33:25;102401.00;;;10.70
19282;BMP180;9774;52.034;5.342;2024-03-07T01:35:52;102406.00;;;10.70
19282;BMP180;9774;52.034;5.342;2024-03-07T01:38:21;102398.00;;;10.70
19282;BMP180;9774;52.034;5.342;2024-03-07T01:40:48;102388.00;;;10.70
19282;BMP180;9774;52.034;5.342;2024-03-07T01:43:15;102394.00;;;10.70
19282;BMP180;9774;52.034;5.342;2024-03-07T01:45:42;102383.00;;;10.70
19282;BMP180;9774;52.034;5.342;2024-03-07T01:48:11;102389.00;;;10.60
19282;BMP180;9774;52.034;5.342;2024-03-07T01:50:41;102392.00;;;10.60
19282;BMP180;9774;52.034;5.342;2024-03-07T01:53:10;102388.00;;;10.60
19282;BMP180;9774;52.034;5.342;2024-03-07T01:55:39;102383.00;;;10.60
19282;BMP180;9774;52.034;5.342;2024-03-07T01:58:09;102373.00;;;10.60
19282;BMP180;9774;52.034;5.342;2024-03-07T02:00:39;102381.00;;;10.60
19282;BMP180;9774;52.034;5.342;2024-03-07T02:03:06;102381.00;;;10.60
19282;BMP180;9774;52.034;5.342;2024-03-07T02:05:34;102372.00;;;10.50
19282;BMP180;9774;52.034;5.342;2024-03-07T02:08:02;102368.00;;;10.60
19282;BMP180;9774;52.034;5.342;2024-03-07T02:10:29;102370.00;;;10.60
19282;BMP180;9774;52.034;5.342;2024-03-07T02:12:57;102369.00;;;10.60
19282;BMP180;9774;52.034;5.342;2024-03-07T02:15:26;102366.00;;;10.60
19282;BMP180;9774;52.034;5.342;2024-03-07T02:17:53;102368.00;;;10.60
19282;BMP180;9774;52.034;5.342;2024-03-07T02:20:21;102376.00;;;10.60
19282;BMP180;9774;52.034;5.342;2024-03-07T02:22:49;102369.00;;;10.60
19282;BMP180;9774;52.034;5.342;2024-03-07T02:25:17;102371.00;;;10.70
19282;BMP180;9774;52.034;5.342;2024-03-07T02:27:45;102371.00;;;10.70
19282;BMP180;9774;52.034;5.342;2024-03-07T02:30:13;102375.00;;;10.70
19282;BMP180;9774;52.034;5.342;2024-03-07T02:32:40;102376.00;;;10.70
19282;BMP180;9774;52.034;5.342;2024-03-07T02:35:08;102382.00;;;10.80
19282;BMP180;9774;52.034;5.342;2024-03-07T02:37:35;102371.00;;;10.80
19282;BMP180;9774;52.034;5.342;2024-03-07T02:40:06;102366.00;;;10.70
19282;BMP180;9774;52.034;5.342;2024-03-07T02:42:33;102374.00;;;10.80
19282;BMP180;9774;52.034;5.342;2024-03-07T02:45:01;102366.00;;;10.80
19282;BMP180;9774;52.034;5.342;2024-03-07T02:47:28;102369.00;;;10.70
19282;BMP180;9774;52.034;5.342;2024-03-07T02:49:55;102368.00;;;10.70
19282;BMP180;9774;52.034;5.342;2024-03-07T02:52:22;102367.00;;;10.60
19282;BMP180;9774;52.034;5.342;2024-03-07T02:54:49;102359.00;;;10.60
19282;BMP180;9774;52.034;5.342;2024-03-07T02:57:18;102367.00;;;10.60
19282;BMP180;9774;52.034;5.342;2024-03-07T02:59:45;102364.00;;;10.60
19282;BMP180;9774;52.034;5.342;2024-03-07T03:02:12;102348.00;;;10.60
19282;BMP180;9774;52.034;5.342;2024-03-07T03:04:39;102355.00;;;10.50
19282;BMP180;9774;52.034;5.342;2024-03-07T03:07:06;102354.00;;;10.50
19282;BMP180;9774;52.034;5.342;2024-03-07T03:09:34;102346.00;;;10.50
19282;BMP180;9774;52.034;5.342;2024-03-07T03:12:06;102340.00;;;10.40
19282;BMP180;9774;52.034;5.342;2024-03-07T03:14:35;102333.00;;;10.40
19282;BMP180;9774;52.034;5.342;2024-03-07T03:17:02;102336.00;;;10.40
19282;BMP180;9774;52.034;5.342;2024-03-07T03:19:30;102337.00;;;10.40
19282;BMP180;9774;52.034;5.342;2024-03-07T03:21:57;102333.00;;;10.30
19282;BMP180;9774;52.034;5.342;2024-03-07T03:24:24;102332.00;;;10.30
19282;BMP180;9774;52.034;5.342;2024-03-07T03:26:53;102324.00;;;10.30
19282;BMP180;9774;52.034;5.342;2024-03-07T03:29:20;102341.00;;;10.30
19282;BMP180;9774;52.034;5.342;2024-03-07T03:31:48;102329.00;;;10.20
19282;BMP180;9774;52.034;5.342;2024-03-07T03:34:16;102326.00;;;10.20
19282;BMP180;9774;52.034;5.342;2024-03-07T03:36:43;102328.00;;;10.20
19282;BMP180;9774;52.034;5.342;2024-03-07T03:39:10;102319.00;;;10.20
19282;BMP180;9774;52.034;5.342;2024-03-07T03:41:39;102320.00;;;10.20
19282;BMP180;9774;52.034;5.342;2024-03-07T03:44:06;102316.00;;;10.20
19282;BMP180;9774;52.034;5.342;2024-03-07T03:46:33;102312.00;;;10.20
19282;BMP180;9774;52.034;5.342;2024-03-07T03:49:01;102315.00;;;10.20
19282;BMP180;9774;52.034;5.342;2024-03-07T03:51:30;102317.00;;;10.10
19282;BMP180;9774;52.034;5.342;2024-03-07T03:53:57;102303.00;;;10.10
19282;BMP180;9774;52.034;5.342;2024-03-07T03:56:25;102311.00;;;10.10
19282;BMP180;9774;52.034;5.342;2024-03-07T03:58:52;102303.00;;;10.10
19282;BMP180;9774;52.034;5.342;2024-03-07T04:01:19;102314.00;;;10.10
19282;BMP180;9774;52.034;5.342;2024-03-07T04:03:46;102311.00;;;10.10
19282;BMP180;9774;52.034;5.342;2024-03-07T04:06:15;102311.00;;;10.00
19282;BMP180;9774;52.034;5.342;2024-03-07T04:08:42;102303.00;;;10.10
19282;BMP180;9774;52.034;5.342;2024-03-07T04:11:09;102319.00;;;10.00
19282;BMP180;9774;52.034;5.342;2024-03-07T04:13:36;102306.00;;;10.00
19282;BMP180;9774;52.034;5.342;2024-03-07T04:16:04;102308.00;;;10.00
19282;BMP180;9774;52.034;5.342;2024-03-07T04:18:31;102303.00;;;10.00
19282;BMP180;9774;52.034;5.342;2024-03-07T04:20:59;102303.00;;;10.00
19282;BMP180;9774;52.034;5.342;2024-03-07T04:23:27;102309.00;;;9.90
19282;BMP180;9774;52.034;5.342;2024-03-07T04:25:54;102307.00;;;9.90
19282;BMP180;9774;52.034;5.342;2024-03-07T04:28:22;102303.00;;;9.90
19282;BMP180;9774;52.034;5.342;2024-03-07T04:30:49;102310.00;;;9.80
19282;BMP180;9774;52.034;5.342;2024-03-07T04:33:19;102310.00;;;9.80
19282;BMP180;9774;52.034;5.342;2024-03-07T04:35:46;102307.00;;;9.80
19282;BMP180;9774;52.034;5.342;2024-03-07T04:38:13;102312.00;;;9.80
19282;BMP180;9774;52.034;5.342;2024-03-07T04:40:43;102302.00;;;9.70
19282;BMP180;9774;52.034;5.342;2024-03-07T04:43:10;102310.00;;;9.70
19282;BMP180;9774;52.034;5.342;2024-03-07T04:45:38;102305.00;;;9.70
19282;BMP180;9774;52.034;5.342;2024-03-07T04:48:06;102298.00;;;9.70
19282;BMP180;9774;52.034;5.342;2024-03-07T04:50:34;102301.00;;;9.70
19282;BMP180;9774;52.034;5.342;2024-03-07T04:53:01;102301.00;;;9.70
19282;BMP180;9774;52.034;5.342;2024-03-07T04:55:28;102308.00;;;9.60
19282;BMP180;9774;52.034;5.342;2024-03-07T04:57:57;102298.00;;;9.60
19282;BMP180;9774;52.034;5.342;2024-03-07T05:00:25;102309.00;;;9.60
19282;BMP180;9774;52.034;5.342;2024-03-07T05:02:52;102304.00;;;9.60
19282;BMP180;9774;52.034;5.342;2024-03-07T05:05:20;102304.00;;;9.60
19282;BMP180;9774;52.034;5.342;2024-03-07T05:07:51;102300.00;;;9.60
19282;BMP180;9774;52.034;5.342;2024-03-07T05:10:18;102303.00;;;9.60
19282;BMP180;9774;52.034;5.342;2024-03-07T05:12:45;102300.00;;;9.60
19282;BMP180;9774;52.034;5.342;2024-03-07T05:15:14;102304.00;;;9.50
19282;BMP180;9774;52.034;5.342;2024-03-07T05:17:41;102306.00;;;9.50
19282;BMP180;9774;52.034;5.342;2024-03-07T05:20:09;102306.00;;;9.50
19282;BMP180;9774;52.034;5.342;2024-03-07T05:22:38;102303.00;;;9.50
19282;BMP180;9774;52.034;5.342;2024-03-07T05:25:06;102310.00;;;9.50
19282;BMP180;9774;52.034;5.342;2024-03-07T05:27:34;102303.00;;;9.50
19282;BMP180;9774;52.034;5.342;2024-03-07T05:30:02;102304.00;;;9.50
19282;BMP180;9774;52.034;5.342;2024-03-07T05:32:32;102303.00;;;9.40
19282;BMP180;9774;52.034;5.342;2024-03-07T05:35:00;102313.00;;;9.50
19282;BMP180;9774;52.034;5.342;2024-03-07T05:37:27;102310.00;;;9.40
19282;BMP180;9774;52.034;5.342;2024-03-07T05:39:54;102308.00;;;9.40
19282;BMP180;9774;52.034;5.342;2024-03-07T05:42:22;102299.00;;;9.40
19282;BMP180;9774;52.034;5.342;2024-03-07T05:44:51;102301.00;;;9.40
19282;BMP180;9774;52.034;5.342;2024-03-07T05:47:19;102305.00;;;9.40
19282;BMP180;9774;52.034;5.342;2024-03-07T05:49:48;102305.00;;;9.40
19282;BMP180;9774;52.034;5.342;2024-03-07T05:52:16;102301.00;;;9.40
19282;BMP180;9774;52.034;5.342;2024-03-07T05:54:44;102302.00;;;9.40
19282;BMP180;9774;52.034;5.342;2024-03-07T05:57:11;102301.00;;;9.40
19282;BMP180;9774;52.034;5.342;2024-03-07T05:59:38;102304.00;;;9.40
19282;BMP180;9774;52.034;5.342;2024-03-07T06:02:05;102296.00;;;9.40
19282;BMP180;9774;52.034;5.342;2024-03-07T06:04:33;102308.00;;;9.40
19282;BMP180;9774;52.034;5.342;2024-03-07T06:07:01;102300.00;;;9.30
19282;BMP180;9774;52.034;5.342;2024-03-07T06:09:29;102305.00;;;9.30
19282;BMP180;9774;52.034;5.342;2024-03-07T06:11:56;102299.00;;;9.40
19282;BMP180;9774;52.034;5.342;2024-03-07T06:14:23;102309.00;;;9.40
19282;BMP180;9774;52.034;5.342;2024-03-07T06:16:50;102302.00;;;9.40
19282;BMP180;9774;52.034;5.342;2024-03-07T06:19:18;102311.00;;;9.30
19282;BMP180;9774;52.034;5.342;2024-03-07T06:21:45;102310.00;;;9.30
19282;BMP180;9774;52.034;5.342;2024-03-07T06:24:15;102309.00;;;9.30
19282;BMP180;9774;52.034;5.342;2024-03-07T06:26:44;102309.00;;;9.40
19282;BMP180;9774;52.034;5.342;2024-03-07T06:29:26;102306.00;;;9.40
19282;BMP180;9774;52.034;5.342;2024-03-07T06:31:55;102312.00;;;9.30
19282;BMP180;9774;52.034;5.342;2024-03-07T06:34:23;102310.00;;;9.30
19282;BMP180;9774;52.034;5.342;2024-03-07T06:36:50;102310.00;;;9.30
19282;BMP180;9774;52.034;5.342;2024-03-07T06:39:18;102307.00;;;9.30
19282;BMP180;9774;52.034;5.342;2024-03-07T06:41:47;102307.00;;;9.30
19282;BMP180;9774;52.034;5.342;2024-03-07T06:44:14;102308.00;;;9.30
19282;BMP180;9774;52.034;5.342;2024-03-07T06:46:43;102311.00;;;9.30
19282;BMP180;9774;52.034;5.342;2024-03-07T06:49:11;102314.00;;;9.30
19282;BMP180;9774;52.034;5.342;2024-03-07T06:51:38;102312.00;;;9.30
19282;BMP180;9774;52.034;5.342;2024-03-07T06:54:06;102324.00;;;9.40
19282;BMP180;9774;52.034;5.342;2024-03-07T06:56:34;102310.00;;;9.30
19282;BMP180;9774;52.034;5.342;2024-03-07T06:59:02;102319.00;;;9.40
19282;BMP180;9774;52.034;5.342;2024-03-07T07:01:30;102315.00;;;9.40
19282;BMP180;9774;52.034;5.342;2024-03-07T07:03:59;102312.00;;;9.40
19282;BMP180;9774;52.034;5.342;2024-03-07T07:06:29;102307.00;;;9.40
19282;BMP180;9774;52.034;5.342;2024-03-07T07:08:57;102299.00;;;9.40
19282;BMP180;9774;52.034;5.342;2024-03-07T07:11:28;102306.00;;;9.40
19282;BMP180;9774;52.034;5.342;2024-03-07T07:13:57;102302.00;;;9.50
19282;BMP180;9774;52.034;5.342;2024-03-07T07:16:24;102308.00;;;9.50
19282;BMP180;9774;52.034;5.342;2024-03-07T07:18:51;102311.00;;;9.50
19282;BMP180;9774;52.034;5.342;2024-03-07T07:21:18;102303.00;;;9.50
19282;BMP180;9774;52.034;5.342;2024-03-07T07:23:46;102305.00;;;9.60
19282;BMP180;9774;52.034;5.342;2024-03-07T07:26:14;102305.00;;;9.60
19282;BMP180;9774;52.034;5.342;2024-03-07T07:28:41;102305.00;;;9.60
19282;BMP180;9774;52.034;5.342;2024-03-07T07:31:09;102304.00;;;9.70
19282;BMP180;9774;52.034;5.342;2024-03-07T07:33:36;102300.00;;;9.70
19282;BMP180;9774;52.034;5.342;2024-03-07T07:36:04;102302.00;;;9.70
19282;BMP180;9774;52.034;5.342;2024-03-07T07:38:31;102303.00;;;9.70
19282;BMP180;9774;52.034;5.342;2024-03-07T07:40:59;102299.00;;;9.80
19282;BMP180;9774;52.034;5.342;2024-03-07T07:43:27;102289.00;;;9.80
19282;BMP180;9774;52.034;5.342;2024-03-07T07:45:54;102296.00;;;9.80
19282;BMP180;9774;52.034;5.342;2024-03-07T07:48:23;102300.00;;;9.90
19282;BMP180;9774;52.034;5.342;2024-03-07T07:50:50;102296.00;;;9.90
19282;BMP180;9774;52.034;5.342;2024-03-07T07:53:18;102299.00;;;9.90
19282;BMP180;9774;52.034;5.342;2024-03-07T07:55:45;102295.00;;;10.00
19282;BMP180;9774;52.034;5.342;2024-03-07T07:58:12;102290.00;;;10.10
19282;BMP180;9774;52.034;5.342;2024-03-07T08:00:39;102298.00;;;10.10
19282;BMP180;9774;52.034;5.342;2024-03-07T08:03:10;102296.00;;;10.20
19282;BMP180;9774;52.034;5.342;2024-03-07T08:05:39;102298.00;;;10.20
19282;BMP180;9774;52.034;5.342;2024-03-07T08:08:08;102294.00;;;10.20
19282;BMP180;9774;52.034;5.342;2024-03-07T08:10:39;102293.00;;;10.30
19282;BMP180;9774;52.034;5.342;2024-03-07T08:13:07;102293.00;;;10.30
19282;BMP180;9774;52.034;5.342;2024-03-07T08:15:36;102290.00;;;10.30
19282;BMP180;9774;52.034;5.342;2024-03-07T08:18:04;102292.00;;;10.40
19282;BMP180;9774;52.034;5.342;2024-03-07T08:20:35;102291.00;;;10.40
19282;BMP180;9774;52.034;5.342;2024-03-07T08:23:04;102292.00;;;10.50
19282;BMP180;9774;52.034;5.342;2024-03-07T08:25:31;102289.00;;;10.50
19282;BMP180;9774;52.034;5.342;2024-03-07T08:27:58;102293.00;;;10.50
19282;BMP180;9774;52.034;5.342;2024-03-07T08:30:26;102301.00;;;10.60
19282;BMP180;9774;52.034;5.342;2024-03-07T08:32:56;102291.00;;;10.60
19282;BMP180;9774;52.034;5.342;2024-03-07T08:35:25;102301.00;;;10.70
19282;BMP180;9774;52.034;5.342;2024-03-07T08:37:54;102297.00;;;10.80
19282;BMP180;9774;52.034;5.342;2024-03-07T08:40:25;102291.00;;;10.80
19282;BMP180;9774;52.034;5.342;2024-03-07T08:42:53;102300.00;;;10.90
19282;BMP180;9774;52.034;5.342;2024-03-07T08:45:21;102292.00;;;10.90
19282;BMP180;9774;52.034;5.342;2024-03-07T08:47:52;102293.00;;;11.00
19282;BMP180;9774;52.034;5.342;2024-03-07T08:50:20;102291.00;;;11.10
19282;BMP180;9774;52.034;5.342;2024-03-07T08:52:49;102286.00;;;11.10
19282;BMP180;9774;52.034;5.342;2024-03-07T08:55:19;102293.00;;;11.20
19282;BMP180;9774;52.034;5.342;2024-03-07T08:57:48;102291.00;;;11.30
19282;BMP180;9774;52.034;5.342;2024-03-07T09:00:17;102286.00;;;11.30
19282;BMP180;9774;52.034;5.342;2024-03-07T09:02:51;102292.00;;;11.50
19282;BMP180;9774;52.034;5.342;2024-03-07T09:05:20;102291.00;;;11.50
19282;BMP180;9774;52.034;5.342;2024-03-07T09:07:48;102295.00;;;11.60
19282;BMP180;9774;52.034;5.342;2024-03-07T09:10:16;102287.00;;;11.70
19282;BMP180;9774;52.034;5.342;2024-03-07T09:12:44;102288.00;;;11.70
19282;BMP180;9774;52.034;5.342;2024-03-07T09:15:12;102290.00;;;11.80
19282;BMP180;9774;52.034;5.342;2024-03-07T09:17:42;102271.00;;;11.90
19282;BMP180;9774;52.034;5.342;2024-03-07T09:20:11;102286.00;;;11.90
19282;BMP180;9774;52.034;5.342;2024-03-07T09:22:40;102277.00;;;12.00
19282;BMP180;9774;52.034;5.342;2024-03-07T09:25:09;102276.00;;;12.10
19282;BMP180;9774;52.034;5.342;2024-03-07T09:27:38;102271.00;;;12.10
19282;BMP180;9774;52.034;5.342;2024-03-07T09:30:07;102264.00;;;12.20
19282;BMP180;9774;52.034;5.342;2024-03-07T09:32:39;102272.00;;;12.30
19282;BMP180;9774;52.034;5.342;2024-03-07T09:35:08;102281.00;;;12.40
19282;BMP180;9774;52.034;5.342;2024-03-07T09:37:39;102275.00;;;12.40
19282;BMP180;9774;52.034;5.342;2024-03-07T09:40:08;102262.00;;;12.50
19282;BMP180;9774;52.034;5.342;2024-03-07T09:42:43;102263.00;;;12.50
19282;BMP180;9774;52.034;5.342;2024-03-07T09:45:16;102263.00;;;12.60
19282;BMP180;9774;52.034;5.342;2024-03-07T09:47:47;102258.00;;;12.70
19282;BMP180;9774;52.034;5.342;2024-03-07T09:50:16;102258.00;;;12.80
19282;BMP180;9774;52.034;5.342;2024-03-07T09:52:46;102269.00;;;12.80
19282;BMP180;9774;52.034;5.342;2024-03-07T09:55:16;102259.00;;;12.90
19282;BMP180;9774;52.034;5.342;2024-03-07T09:57:45;102265.00;;;13.00
19282;BMP180;9774;52.034;5.342;2024-03-07T10:00:16;102268.00;;;13.00
19282;BMP180;9774;52.034;5.342;2024-03-07T10:02:54;102254.00;;;13.10
19282;BMP180;9774;52.034;5.342;2024-03-07T10:05:23;102259.00;;;13.20
19282;BMP180;9774;52.034;5.342;2024-03-07T10:07:53;102259.00;;;13.30
19282;BMP180;9774;52.034;5.342;2024-03-07T10:10:20;102259.00;;;13.40
19282;BMP180;9774;52.034;5.342;2024-03-07T10:12:48;102254.00;;;13.40
19282;BMP180;9774;52.034;5.342;2024-03-07T10:15:16;102251.00;;;13.50
19282;BMP180;9774;52.034;5.342;2024-03-07T10:17:44;102252.00;;;13.60
19282;BMP180;9774;52.034;5.342;2024-03-07T10:20:18;102247.00;;;13.60
19282;BMP180;9774;52.034;5.342;2024-03-07T10:22:46;102248.00;;;13.80
19282;BMP180;9774;52.034;5.342;2024-03-07T10:25:17;102249.00;;;13.90
19282;BMP180;9774;52.034;5.342;2024-03-07T10:27:46;102235.00;;;14.00
19282;BMP180;9774;52.034;5.342;2024-03-07T10:30:15;102241.00;;;14.00
19282;BMP180;9774;52.034;5.342;2024-03-07T10:32:46;102230.00;;;14.10
19282;BMP180;9774;52.034;5.342;2024-03-07T10:35:20;102232.00;;;14.10
19282;BMP180;9774;52.034;5.342;2024-03-07T10:37:47;102208.00;;;14.20
19282;BMP180;9774;52.034;5.342;2024-03-07T10:40:14;102214.00;;;14.30
19282;BMP180;9774;52.034;5.342;2024-03-07T10:42:46;102208.00;;;14.40
19282;BMP180;9774;52.034;5.342;2024-03-07T10:45:18;102207.00;;;14.50
19282;BMP180;9774;52.034;5.342;2024-03-07T10:47:53;102208.00;;;14.50
19282;BMP180;9774;52.034;5.342;2024-03-07T10:50:38;102225.00;;;14.60
19282;BMP180;9774;52.034;5.342;2024-03-07T10:53:20;102219.00;;;14.70
19282;BMP180;9774;52.034;5.342;2024-03-07T10:56:12;102215.00;;;14.70
19282;BMP180;9774;52.034;5.342;2024-03-07T10:58:57;102208.00;;;14.80
19282;BMP180;9774;52.034;5.342;2024-03-07T11:01:30;102205.00;;;14.90
19282;BMP180;9774;52.034;5.342;2024-03-07T11:04:00;102213.00;;;15.00
19282;BMP180;9774;52.034;5.342;2024-03-07T11:06:32;102209.00;;;15.10
19282;BMP180;9774;52.034;5.342;2024-03-07T11:09:03;102198.00;;;15.10
19282;BMP180;9774;52.034;5.342;2024-03-07T11:11:38;102205.00;;;15.20
19282;BMP180;9774;52.034;5.342;2024-03-07T11:14:07;102199.00;;;15.30
19282;BMP180;9774;52.034;5.342;2024-03-07T11:16:39;102206.00;;;15.40
19282;BMP180;9774;52.034;5.342;2024-03-07T11:19:34;102201.00;;;15.40
19282;BMP180;9774;52.034;5.342;2024-03-07T11:22:05;102199.00;;;15.60
19282;BMP180;9774;52.034;5.342;2024-03-07T11:24:41;102189.00;;;15.70
19282;BMP180;9774;52.034;5.342;2024-03-07T11:27:11;102191.00;;;15.80
19282;BMP180;9774;52.034;5.342;2024-03-07T11:29:47;102188.00;;;15.80
19282;BMP180;9774;52.034;5.342;2024-03-07T11:32:19;102200.00;;;15.90
19282;BMP180;9774;52.034;5.342;2024-03-07T11:34:49;102192.00;;;15.90
19282;BMP180;9774;52.034;5.342;2024-03-07T11:37:38;102187.00;;;15.90
19282;BMP180;9774;52.034;5.342;2024-03-07T11:40:12;102187.00;;;16.00
19282;BMP180;9774;52.034;5.342;2024-03-07T11:42:47;102184.00;;;16.10
19282;BMP180;9774;52.034;5.342;2024-03-07T11:45:15;102185.00;;;16.20
19282;BMP180;9774;52.034;5.342;2024-03-07T11:47:51;102183.00;;;16.20
19282;BMP180;9774;52.034;5.342;2024-03-07T11:50:24;102182.00;;;16.20
19282;BMP180;9774;52.034;5.342;2024-03-07T11:52:55;102180.00;;;16.30
19282;BMP180;9774;52.034;5.342;2024-03-07T11:55:23;102170.00;;;16.40
19282;BMP180;9774;52.034;5.342;2024-03-07T11:57:50;102160.00;;;16.40
19282;BMP180;9774;52.034;5.342;2024-03-07T12:00:18;102162.00;;;16.40
19282;BMP180;9774;52.034;5.342;2024-03-07T12:02:46;102151.00;;;16.40
19282;BMP180;9774;52.034;5.342;2024-03-07T12:05:14;102154.00;;;16.40
19282;BMP180;9774;52.034;5.342;2024-03-07T12:07:43;102148.00;;;16.50
19282;BMP180;9774;52.034;5.342;2024-03-07T12:10:12;102142.00;;;16.50
19282;BMP180;9774;52.034;5.342;2024-03-07T12:12:39;102127.00;;;16.60
19282;BMP180;9774;52.034;5.342;2024-03-07T12:15:08;102134.00;;;16.60
19282;BMP180;9774;52.034;5.342;2024-03-07T12:17:45;102129.00;;;16.60
19282;BMP180;9774;52.034;5.342;2024-03-07T12:20:15;102117.00;;;16.60
19282;BMP180;9774;52.034;5.342;2024-03-07T12:22:56;102109.00;;;16.70
19282;BMP180;9774;52.034;5.342;2024-03-07T12:25:25;102107.00;;;16.70
19282;BMP180;9774;52.034;5.342;2024-03-07T12:28:07;102111.00;;;16.60
19282;BMP180;9774;52.034;5.342;2024-03-07T12:30:49;102104.00;;;16.70
19282;BMP180;9774;52.034;5.342;2024-03-07T12:33:16;102102.00;;;16.80
19282;BMP180;9774;52.034;5.342;2024-03-07T12:35:45;102091.00;;;16.90
19282;BMP180;9774;52.034;5.342;2024-03-07T12:38:13;102094.00;;;16.90
19282;BMP180;9774;52.034;5.342;2024-03-07T12:40:44;102093.00;;;17.00
19282;BMP180;9774;52.034;5.342;2024-03-07T12:43:19;102088.00;;;17.00
19282;BMP180;9774;52.034;5.342;2024-03-07T12:45:50;102088.00;;;17.10
19282;BMP180;9774;52.034;5.342;2024-03-07T12:48:18;102081.00;;;17.20
19282;BMP180;9774;52.034;5.342;2024-03-07T12:50:47;102076.00;;;17.20
19282;BMP180;9774;52.034;5.342;2024-03-07T12:53:19;102074.00;;;17.20
19282;BMP180;9774;52.034;5.342;2024-03-07T12:55:49;102069.00;;;17.20
19282;BMP180;9774;52.034;5.342;2024-03-07T12:58:18;102070.00;;;17.20
19282;BMP180;9774;52.034;5.342;2024-03-07T13:00:46;102071.00;;;17.20
19282;BMP180;9774;52.034;5.342;2024-03-07T13:03:13;102067.00;;;17.30
19282;BMP180;9774;52.034;5.342;2024-03-07T13:05:41;102067.00;;;17.30
19282;BMP180;9774;52.034;5.342;2024-03-07T13:08:09;102065.00;;;17.40
19282;BMP180;9774;52.034;5.342;2024-03-07T13:10:38;102063.00;;;17.50
19282;BMP180;9774;52.034;5.342;2024-03-07T13:13:08;102059.00;;;17.60
19282;BMP180;9774;52.034;5.342;2024-03-07T13:15:36;102049.00;;;17.70
19282;BMP180;9774;52.034;5.342;2024-03-07T13:18:05;102045.00;;;17.70
19282;BMP180;9774;52.034;5.342;2024-03-07T13:20:33;102045.00;;;17.90
19282;BMP180;9774;52.034;5.342;2024-03-07T13:23:00;102041.00;;;18.00
19282;BMP180;9774;52.034;5.342;2024-03-07T13:25:29;102041.00;;;18.20
19282;BMP180;9774;52.034;5.342;2024-03-07T13:28:02;102043.00;;;18.40
19282;BMP180;9774;52.034;5.342;2024-03-07T13:30:31;102044.00;;;18.70
19282;BMP180;9774;52.034;5.342;2024-03-07T13:32:59;102036.00;;;19.10
19282;BMP180;9774;52.034;5.342;2024-03-07T13:35:26;102041.00;;;19.60
19282;BMP180;9774;52.034;5.342;2024-03-07T13:37:54;102047.00;;;20.20
19282;BMP180;9774;52.034;5.342;2024-03-07T13:40:23;102041.00;;;20.70
19282;BMP180;9774;52.034;5.342;2024-03-07T13:42:54;102039.00;;;21.20
19282;BMP180;9774;52.034;5.342;2024-03-07T13:45:24;102034.00;;;21.70
19282;BMP180;9774;52.034;5.342;2024-03-07T13:47:54;102030.00;;;22.20
19282;BMP180;9774;52.034;5.342;2024-03-07T13:50:25;102040.00;;;22.70
19282;BMP180;9774;52.034;5.342;2024-03-07T13:52:55;102041.00;;;23.00
19282;BMP180;9774;52.034;5.342;2024-03-07T13:56:34;102029.00;;;23.40
19282;BMP180;9774;52.034;5.342;2024-03-07T13:59:54;102035.00;;;23.80
19282;BMP180;9774;52.034;5.342;2024-03-07T14:02:57;102040.00;;;23.80
19282;BMP180;9774;52.034;5.342;2024-03-07T14:05:57;102049.00;;;23.70
19282;BMP180;9774;52.034;5.342;2024-03-07T14:09:03;102035.00;;;23.50
19282;BMP180;9774;52.034;5.342;2024-03-07T14:12:12;102025.00;;;23.40
19282;BMP180;9774;52.034;5.342;2024-03-07T14:19:29;102027.00;;;22.70
19282;BMP180;9774;52.034;5.342;2024-03-07T14:22:30;102027.00;;;22.20
19282;BMP180;9774;52.034;5.342;2024-03-07T14:25:46;102019.00;;;21.70
19282;BMP180;9774;52.034;5.342;2024-03-07T14:28:42;102024.00;;;21.20
19282;BMP180;9774;52.034;5.342;2024-03-07T14:31:15;102018.00;;;21.00
19282;BMP180;9774;52.034;5.342;2024-03-07T14:34:02;102014.00;;;20.40